Time;durP1;ratioP1;P1;durP2;ratioP2;P2;SDS_P1;SDS_P2;PMS_P1;PMS_P2;Temp;Humidity;BMP_temperature;BMP_pressure;BME280_temperature;BME280_humidity;BME280_pressure;Samples;Min_cycle;Max_cycle;Signal;HPM_P1;HPM_P2
2021/06/26 00:00:51;;;;;;;;;;;;;;;22.12;52.96;101400.19;2196592;39;115056;-54
2021/06/26 00:02:23;;;;;;;;;;;;;;;22.09;52.82;101393.19;2199398;39;114921;-53
2021/06/26 00:03:55;;;;;;;;;;;;;;;22.08;53.00;101393.47;2204589;39;114171;-53
2021/06/26 00:05:26;;;;;;;;;;;;;;;22.05;52.97;101394.09;2198830;39;114828;-53
2021/06/26 00:06:58;;;;;;;;;;;;;;;22.07;53.14;101400.28;2190276;39;115380;-59
2021/06/26 00:08:30;;;;;;;;;;;;;;;22.08;53.23;101401.91;2199433;39;114925;-54
2021/06/26 00:10:02;;;;;;;;;;;;;;;22.08;53.40;101394.31;2198179;39;115532;-53
2021/06/26 00:11:34;;;;;;;;;;;;;;;22.08;53.08;101399.09;2189381;39;115945;-54
2021/06/26 00:13:06;;;;;;;;;;;;;;;22.09;53.30;101395.16;2195360;39;116608;-54
2021/06/26 00:14:37;;;;;;;;;;;;;;;22.08;53.32;101405.56;2198229;39;115547;-53
2021/06/26 00:16:09;;;;;;;;;;;;;;;22.11;53.51;101404.13;2197736;39;115295;-53
2021/06/26 00:17:41;;;;;;;;;;;;;;;22.09;53.23;101410.06;2198446;39;114532;-53
2021/06/26 00:19:13;;;;;;;;;;;;;;;22.09;53.40;101406.41;2197798;39;115873;-53
2021/06/26 00:20:45;;;;;;;;;;;;;;;22.09;53.63;101410.06;2203852;39;115684;-54
2021/06/26 00:22:16;;;;;;;;;;;;;;;22.11;53.53;101406.94;2191520;39;115433;-53
2021/06/26 00:23:48;;;;;;;;;;;;;;;22.11;53.57;101409.75;2196100;39;115473;-53
2021/06/26 00:25:22;;;;;;;;;;;;;;;22.12;53.79;101411.44;2201480;39;115817;-53
2021/06/26 00:26:54;;;;;;;;;;;;;;;22.10;53.63;101405.28;2199594;39;115508;-53
2021/06/26 00:28:26;;;;;;;;;;;;;;;22.10;53.75;101408.09;2193437;39;116477;-54
2021/06/26 00:29:57;;;;;;;;;;;;;;;22.09;53.89;101407.25;2199571;39;115455;-54
2021/06/26 00:31:29;;;;;;;;;;;;;;;22.10;53.89;101411.75;2198298;39;113555;-53
2021/06/26 00:33:01;;;;;;;;;;;;;;;22.11;53.95;101416.22;2191037;39;113826;-53
2021/06/26 00:34:33;;;;;;;;;;;;;;;22.14;53.99;101411.94;2184653;39;113777;-53
2021/06/26 00:36:05;;;;;;;;;;;;;;;22.16;54.19;101416.16;2188215;39;115468;-53
2021/06/26 00:37:37;;;;;;;;;;;;;;;22.15;53.79;101413.63;2190552;39;114022;-53
2021/06/26 00:39:08;;;;;;;;;;;;;;;22.13;53.66;101415.91;2191493;39;113844;-53
2021/06/26 00:40:40;;;;;;;;;;;;;;;22.12;53.94;101417.06;2195883;39;114820;-53
2021/06/26 00:42:12;;;;;;;;;;;;;;;22.11;54.03;101415.41;2197723;39;113705;-53
2021/06/26 00:43:44;;;;;;;;;;;;;;;22.10;54.23;101416.53;2197963;39;113737;-69
2021/06/26 00:45:16;;;;;;;;;;;;;;;22.09;54.17;101410.06;2189801;39;113767;-53
2021/06/26 00:46:48;;;;;;;;;;;;;;;22.07;54.11;101408.72;2189326;39;113746;-54
2021/06/26 00:48:20;;;;;;;;;;;;;;;22.08;54.12;101407.53;2201138;39;113785;-53
2021/06/26 00:49:54;;;;;;;;;;;;;;;22.06;54.09;101405.06;2193078;39;113774;-53
2021/06/26 00:51:26;;;;;;;;;;;;;;;22.08;54.07;101402.75;2192198;39;113732;-60
2021/06/26 00:52:58;;;;;;;;;;;;;;;22.07;54.25;101401.09;2193934;39;113879;-54
2021/06/26 00:54:30;;;;;;;;;;;;;;;22.06;54.37;101405.06;2196033;39;115310;-53
2021/06/26 00:56:02;;;;;;;;;;;;;;;22.05;54.32;101411.81;2195991;39;114783;-54
2021/06/26 00:57:35;;;;;;;;;;;;;;;22.05;54.11;101411.00;2186903;39;114852;-53
2021/06/26 00:59:07;;;;;;;;;;;;;;;22.06;54.32;101407.88;2195397;39;115036;-55
2021/06/26 01:00:38;;;;;;;;;;;;;;;22.05;54.30;101406.19;2192826;39;114046;-53
2021/06/26 01:02:10;;;;;;;;;;;;;;;22.04;54.26;101410.16;2199049;39;114885;-53
2021/06/26 01:03:43;;;;;;;;;;;;;;;22.05;54.06;101402.53;2197485;39;114911;-53
2021/06/26 01:05:16;;;;;;;;;;;;;;;22.05;54.14;101408.16;2197645;39;116366;-53
2021/06/26 01:06:48;;;;;;;;;;;;;;;22.04;54.32;101406.50;2190732;39;115270;-54
2021/06/26 01:08:21;;;;;;;;;;;;;;;22.05;54.05;101408.16;2196175;39;114747;-53
2021/06/26 01:09:52;;;;;;;;;;;;;;;22.04;54.38;101406.50;2198544;39;115598;-53
2021/06/26 01:11:24;;;;;;;;;;;;;;;22.04;54.17;101398.06;2190169;39;115095;-53
2021/06/26 01:12:57;;;;;;;;;;;;;;;22.02;54.13;101406.81;2191477;39;115534;-53
2021/06/26 01:14:29;;;;;;;;;;;;;;;22.03;54.38;101408.47;2192196;39;115077;-53
2021/06/26 01:16:01;;;;;;;;;;;;;;;22.03;54.38;101404.84;2189343;39;115850;-53
2021/06/26 01:17:33;;;;;;;;;;;;;;;22.03;54.26;101408.47;2183717;39;115834;-53
2021/06/26 01:19:04;;;;;;;;;;;;;;;22.03;54.15;101408.47;2195967;39;115928;-53
2021/06/26 01:20:36;;;;;;;;;;;;;;;22.03;54.14;101402.03;2197705;39;114660;-53
2021/06/26 01:22:08;;;;;;;;;;;;;;;22.03;54.46;101411.28;2191577;39;114844;-54
2021/06/26 01:23:46;;;;;;;;;;;;;;;22.07;54.49;101411.53;2185815;39;115491;-54
2021/06/26 01:25:19;;;;;;;;;;;;;;;22.05;54.18;101405.34;2194371;39;115613;-54
2021/06/26 01:26:55;;;;;;;;;;;;;;;22.03;54.25;101404.84;2186702;39;115748;-53
2021/06/26 01:28:27;;;;;;;;;;;;;;;22.04;54.24;101407.34;2187914;39;115928;-53
2021/06/26 01:29:59;;;;;;;;;;;;;;;22.03;54.21;101405.66;2188904;39;115759;-54
2021/06/26 01:31:31;;;;;;;;;;;;;;;22.01;54.35;101402.34;2186779;39;115684;-54
2021/06/26 01:33:04;;;;;;;;;;;;;;;22.03;54.12;101408.47;2196467;39;115503;-53
2021/06/26 01:34:36;;;;;;;;;;;;;;;22.02;54.34;101401.19;2195463;39;115597;-53
2021/06/26 01:36:07;;;;;;;;;;;;;;;22.03;54.44;101408.47;2194361;39;115516;-53
2021/06/26 01:37:40;;;;;;;;;;;;;;;22.02;54.35;101401.19;2196074;39;113663;-53
2021/06/26 01:39:11;;;;;;;;;;;;;;;22.02;54.21;101401.19;2187704;39;113869;-53
2021/06/26 01:40:43;;;;;;;;;;;;;;;22.03;54.29;101408.47;2196560;39;113923;-54
2021/06/26 01:42:14;;;;;;;;;;;;;;;22.08;54.19;101399.09;2190200;39;113649;-54
2021/06/26 01:43:46;;;;;;;;;;;;;;;22.09;54.31;101398.81;2196362;39;113848;-53
2021/06/26 01:45:18;;;;;;;;;;;;;;;22.10;54.48;101403.28;2198690;39;114059;-53
2021/06/26 01:46:51;;;;;;;;;;;;;;;22.12;54.45;101400.19;2198468;39;113842;-54
2021/06/26 01:48:23;;;;;;;;;;;;;;;22.09;54.39;101400.78;2193280;39;113761;-53
2021/06/26 01:49:54;;;;;;;;;;;;;;;22.11;54.40;101404.13;2194804;39;113951;-53
2021/06/26 01:51:30;;;;;;;;;;;;;;;22.12;54.32;101403.00;2201084;39;113709;-53
2021/06/26 01:53:02;;;;;;;;;;;;;;;22.11;54.41;101404.97;2192978;39;114230;-53
2021/06/26 01:54:34;;;;;;;;;;;;;;;22.14;54.41;101400.69;2195036;39;113723;-53
2021/06/26 01:56:06;;;;;;;;;;;;;;;22.13;54.78;101399.00;2198901;39;114272;-53
2021/06/26 01:57:37;;;;;;;;;;;;;;;22.12;54.58;101401.00;2187970;39;114240;-53
2021/06/26 01:59:09;;;;;;;;;;;;;;;22.12;54.45;101401.00;2191945;39;114505;-53
2021/06/26 02:00:41;;;;;;;;;;;;;;;22.14;54.62;101406.31;2192484;39;115108;-53
2021/06/26 02:02:15;;;;;;;;;;;;;;;22.15;54.77;101399.56;2200908;39;114944;-53
2021/06/26 02:03:47;;;;;;;;;;;;;;;22.16;54.49;101404.06;2198887;39;115082;-54
2021/06/26 02:05:22;;;;;;;;;;;;;;;22.15;54.54;101397.59;2200325;39;115333;-53
2021/06/26 02:06:54;;;;;;;;;;;;;;;22.14;54.63;101395.06;2197004;39;115569;-54
2021/06/26 02:08:25;;;;;;;;;;;;;;;22.20;54.73;101401.44;2190569;39;114702;-53
2021/06/26 02:09:57;;;;;;;;;;;;;;;22.20;54.66;101407.06;2190183;39;115570;-54
2021/06/26 02:11:29;;;;;;;;;;;;;;;22.21;54.53;101411.56;2192732;39;115797;-53
2021/06/26 02:13:01;;;;;;;;;;;;;;;22.18;54.58;101413.84;2198859;39;115262;-53
2021/06/26 02:14:33;;;;;;;;;;;;;;;22.17;54.71;101414.16;2193190;39;114835;-53
2021/06/26 02:16:05;;;;;;;;;;;;;;;22.16;54.50;101412.50;2195953;39;115000;-54
2021/06/26 02:17:36;;;;;;;;;;;;;;;22.15;54.63;101410.81;2197558;39;115147;-53
2021/06/26 02:19:08;;;;;;;;;;;;;;;22.17;54.88;101414.16;2196005;39;114919;-53
2021/06/26 02:20:40;;;;;;;;;;;;;;;22.15;54.84;101410.81;2193499;39;115913;-53
2021/06/26 02:22:11;;;;;;;;;;;;;;;22.16;54.64;101421.78;2187767;39;115989;-54
2021/06/26 02:23:43;;;;;;;;;;;;;;;22.16;54.68;101416.16;2191167;39;115692;-54
2021/06/26 02:25:16;;;;;;;;;;;;;;;22.17;54.58;101414.16;2195686;39;114759;-53
2021/06/26 02:26:47;;;;;;;;;;;;;;;22.15;54.66;101425.72;2185511;39;116025;-54
2021/06/26 02:28:19;;;;;;;;;;;;;;;22.14;54.88;101421.25;2192080;39;114546;-53
2021/06/26 02:29:50;;;;;;;;;;;;;;;22.15;55.07;101422.06;2198804;39;115440;-53
2021/06/26 02:31:22;;;;;;;;;;;;;;;22.12;54.58;101422.69;2199007;39;116043;-53
2021/06/26 02:32:54;;;;;;;;;;;;;;;22.12;55.04;101422.69;2199430;39;115439;-53
2021/06/26 02:34:26;;;;;;;;;;;;;;;22.13;54.89;101425.19;2198123;39;115722;-53
2021/06/26 02:35:57;;;;;;;;;;;;;;;22.16;54.91;101420.94;2196865;39;115956;-53
2021/06/26 02:37:29;;;;;;;;;;;;;;;22.13;54.68;101422.38;2202996;39;115774;-54
2021/06/26 02:39:01;;;;;;;;;;;;;;;22.14;54.71;101420.41;2201562;39;115569;-53
2021/06/26 02:40:33;;;;;;;;;;;;;;;22.14;54.50;101412.78;2196229;39;116836;-55
2021/06/26 02:42:06;;;;;;;;;;;;;;;22.15;54.81;101416.44;2197140;39;115643;-53
2021/06/26 02:43:38;;;;;;;;;;;;;;;22.16;54.61;101421.78;2198829;39;113788;-53
2021/06/26 02:45:10;;;;;;;;;;;;;;;22.14;54.70;101417.59;2199255;39;113747;-53
2021/06/26 02:46:42;;;;;;;;;;;;;;;22.14;54.69;101411.94;2198484;39;113626;-53
2021/06/26 02:48:13;;;;;;;;;;;;;;;22.15;54.72;101414.47;2192246;39;113888;-53
2021/06/26 02:49:45;;;;;;;;;;;;;;;22.16;54.68;101418.97;2196750;39;113874;-53
2021/06/26 02:51:17;;;;;;;;;;;;;;;22.17;55.11;101405.69;2202660;39;113817;-53
2021/06/26 02:52:48;;;;;;;;;;;;;;;22.16;54.90;101409.69;2193852;39;114046;-53
2021/06/26 02:54:20;;;;;;;;;;;;;;;22.14;55.08;101412.78;2191658;39;114051;-53
2021/06/26 02:55:55;;;;;;;;;;;;;;;22.14;55.04;101415.59;2185676;39;113734;-53
2021/06/26 02:57:27;;;;;;;;;;;;;;;22.15;54.99;101414.47;2193971;39;114069;-53
2021/06/26 02:58:58;;;;;;;;;;;;;;;22.15;54.97;101417.28;2197074;39;113706;-54
2021/06/26 03:00:30;;;;;;;;;;;;;;;22.13;54.99;101415.91;2192647;39;114080;-54
2021/06/26 03:02:03;;;;;;;;;;;;;;;22.15;54.92;101419.25;2189197;39;113985;-54
2021/06/26 03:03:34;;;;;;;;;;;;;;;22.14;55.00;101421.25;2201595;39;113894;-53
2021/06/26 03:05:06;;;;;;;;;;;;;;;22.15;54.92;101427.72;2197921;39;116129;-53
2021/06/26 03:06:38;;;;;;;;;;;;;;;22.15;54.92;101425.72;2197701;39;114802;-54
2021/06/26 03:08:10;;;;;;;;;;;;;;;22.14;54.78;101426.03;2191902;39;115030;-53
2021/06/26 03:09:41;;;;;;;;;;;;;;;22.13;54.90;101422.38;2192801;39;114226;-53
2021/06/26 03:11:13;;;;;;;;;;;;;;;22.13;54.96;101429.97;2200493;39;115130;-53
2021/06/26 03:12:45;;;;;;;;;;;;;;;22.15;54.84;101427.72;2202615;39;114840;-53
2021/06/26 03:14:17;;;;;;;;;;;;;;;22.15;54.97;101422.06;2189639;39;114226;-53
2021/06/26 03:15:48;;;;;;;;;;;;;;;22.13;54.90;101422.38;2195903;39;115514;-53
2021/06/26 03:17:20;;;;;;;;;;;;;;;22.13;55.01;101421.53;2198744;39;115139;-53
2021/06/26 03:18:51;;;;;;;;;;;;;;;22.12;55.07;101417.88;2198991;39;115060;-53
2021/06/26 03:20:23;;;;;;;;;;;;;;;22.13;55.11;101419.56;2198683;39;115680;-53
2021/06/26 03:21:55;;;;;;;;;;;;;;;22.12;55.04;101422.69;2202047;39;114950;-53
2021/06/26 03:23:26;;;;;;;;;;;;;;;22.11;54.94;101421.88;2198589;39;115026;-53
2021/06/26 03:24:58;;;;;;;;;;;;;;;22.14;54.90;101418.41;2192719;39;113858;-53
2021/06/26 03:26:33;;;;;;;;;;;;;;;22.10;55.10;101420.19;2186280;39;115683;-53
2021/06/26 03:28:04;;;;;;;;;;;;;;;22.11;54.75;101426.66;2192922;39;115785;-53
2021/06/26 03:29:36;;;;;;;;;;;;;;;22.11;54.75;101421.03;2192569;39;115939;-54
2021/06/26 03:31:08;;;;;;;;;;;;;;;22.11;55.06;101424.69;2196705;39;115568;-53
2021/06/26 03:32:40;;;;;;;;;;;;;;;22.12;54.71;101425.50;2193503;39;115545;-53
2021/06/26 03:34:11;;;;;;;;;;;;;;;22.12;54.75;101422.69;2189813;39;115590;-53
2021/06/26 03:35:43;;;;;;;;;;;;;;;22.11;55.01;101427.50;2196753;39;115517;-53
2021/06/26 03:37:15;;;;;;;;;;;;;;;22.11;55.01;101427.50;2198775;39;114512;-53
2021/06/26 03:38:48;;;;;;;;;;;;;;;22.11;55.16;101429.47;2191514;39;115920;-53
2021/06/26 03:40:20;;;;;;;;;;;;;;;22.12;55.36;101422.69;2193787;39;116186;-53
2021/06/26 03:44:00;;;;;;;;;;;;;;;22.11;55.20;101421.88;2194645;39;114918;-54
2021/06/26 03:45:32;;;;;;;;;;;;;;;22.10;55.17;101416.53;2194946;39;115668;-53
2021/06/26 03:47:04;;;;;;;;;;;;;;;22.10;55.22;101419.34;2197349;39;115494;-54
2021/06/26 03:48:36;;;;;;;;;;;;;;;22.12;55.15;101426.31;2195430;39;113605;-53
2021/06/26 03:50:08;;;;;;;;;;;;;;;22.11;55.20;101423.84;2197337;39;113809;-53
2021/06/26 03:51:40;;;;;;;;;;;;;;;22.12;55.05;101425.50;2195590;39;113776;-53
2021/06/26 03:53:12;;;;;;;;;;;;;;;22.13;55.27;101421.53;2196508;39;113984;-53
2021/06/26 03:54:44;;;;;;;;;;;;;;;22.18;55.17;101415.81;2195843;39;113857;-53
2021/06/26 03:56:15;;;;;;;;;;;;;;;22.14;54.86;101417.59;2195804;39;113767;-53
2021/06/26 03:57:47;;;;;;;;;;;;;;;22.12;54.83;101428.34;2198464;39;114025;-53
2021/06/26 03:59:19;;;;;;;;;;;;;;;22.12;55.23;101417.88;2195694;39;114006;-53
2021/06/26 04:00:51;;;;;;;;;;;;;;;22.11;55.22;101427.50;2196156;39;113762;-63
2021/06/26 04:02:22;;;;;;;;;;;;;;;22.10;55.14;101420.19;2198499;39;113746;-54
2021/06/26 04:03:54;;;;;;;;;;;;;;;22.10;55.21;101424.97;2189853;39;113802;-54
2021/06/26 04:05:26;;;;;;;;;;;;;;;22.10;55.23;101428.63;2194723;39;114058;-53
2021/06/26 04:06:58;;;;;;;;;;;;;;;22.07;55.33;101428.41;2197567;39;113876;-53
2021/06/26 04:08:29;;;;;;;;;;;;;;;22.10;55.26;101423.00;2194651;39;113585;-53
2021/06/26 04:10:02;;;;;;;;;;;;;;;22.09;55.33;101428.91;2201023;39;113490;-53
2021/06/26 04:11:36;;;;;;;;;;;;;;;22.07;55.64;101434.03;2196226;39;114408;-53
2021/06/26 04:13:08;;;;;;;;;;;;;;;22.08;55.17;101430.06;2198355;39;114881;-53
2021/06/26 04:14:40;;;;;;;;;;;;;;;22.07;55.64;101431.22;2195168;39;115649;-53
2021/06/26 04:16:12;;;;;;;;;;;;;;;22.07;55.20;101437.69;2197871;39;114944;-53
2021/06/26 04:17:44;;;;;;;;;;;;;;;22.08;55.29;101438.50;2194975;39;115315;-53
2021/06/26 04:19:16;;;;;;;;;;;;;;;22.08;55.49;101442.16;2195627;39;114911;-53
2021/06/26 04:20:48;;;;;;;;;;;;;;;22.07;55.73;101440.50;2193419;39;115051;-54
2021/06/26 04:22:20;;;;;;;;;;;;;;;22.10;55.52;101445.50;2194604;39;115274;-53
2021/06/26 04:23:52;;;;;;;;;;;;;;;22.10;55.79;101450.31;2195002;39;114964;-54
2021/06/26 04:25:24;;;;;;;;;;;;;;;22.07;55.72;101453.75;2187813;39;115045;-53
2021/06/26 04:26:55;;;;;;;;;;;;;;;22.08;55.94;101452.56;2197446;39;115355;-53
2021/06/26 04:28:27;;;;;;;;;;;;;;;22.06;55.88;101447.28;2198135;39;114868;-54
2021/06/26 04:30:00;;;;;;;;;;;;;;;22.03;56.08;101453.50;2198626;39;114918;-53
2021/06/26 04:31:32;;;;;;;;;;;;;;;22.09;56.17;101454.25;2198113;39;115102;-54
2021/06/26 04:33:04;;;;;;;;;;;;;;;22.09;55.93;101448.63;2192943;39;114992;-53
2021/06/26 04:34:36;;;;;;;;;;;;;;;22.09;56.06;101448.63;2184290;39;115883;-53
2021/06/26 04:36:12;;;;;;;;;;;;;;;22.07;55.81;101454.59;2193065;39;115533;-54
2021/06/26 04:37:44;;;;;;;;;;;;;;;22.06;56.00;101460.50;2197693;39;115782;-54
2021/06/26 04:39:16;;;;;;;;;;;;;;;22.06;56.05;101461.34;2198447;39;115959;-53
2021/06/26 04:40:50;;;;;;;;;;;;;;;22.05;55.98;101461.63;2199494;39;115475;-53
2021/06/26 04:42:26;;;;;;;;;;;;;;;22.05;56.20;101456.00;2193218;39;115415;-54
2021/06/26 04:43:58;;;;;;;;;;;;;;;22.05;56.02;101453.19;2192798;39;114734;-53
2021/06/26 04:45:30;;;;;;;;;;;;;;;22.04;56.03;101448.72;2198328;39;114726;-54
2021/06/26 04:47:02;;;;;;;;;;;;;;;22.04;56.14;101451.53;2193864;39;115614;-54
2021/06/26 04:48:34;;;;;;;;;;;;;;;22.05;56.08;101450.38;2197682;39;115860;-54
2021/06/26 04:50:06;;;;;;;;;;;;;;;22.04;56.11;101455.16;2197653;39;115604;-54
2021/06/26 04:51:38;;;;;;;;;;;;;;;22.06;56.08;101452.06;2195089;39;115545;-53
2021/06/26 04:53:10;;;;;;;;;;;;;;;22.08;56.13;101447.78;2192436;39;115639;-53
2021/06/26 04:54:41;;;;;;;;;;;;;;;22.05;56.16;101451.22;2198082;39;114022;-54
2021/06/26 04:56:13;;;;;;;;;;;;;;;22.08;56.03;101449.75;2200693;39;113784;-53
2021/06/26 04:57:45;;;;;;;;;;;;;;;22.06;56.31;101447.28;2197460;39;113751;-54
2021/06/26 04:59:16;;;;;;;;;;;;;;;22.06;55.87;101452.06;2201098;39;114194;-53
2021/06/26 05:00:50;;;;;;;;;;;;;;;22.08;56.10;101461.03;2198337;39;114193;-53
2021/06/26 05:02:22;;;;;;;;;;;;;;;22.07;55.98;101446.13;2190608;39;114111;-53
2021/06/26 05:03:54;;;;;;;;;;;;;;;22.08;56.21;101461.84;2193120;39;113730;-53
2021/06/26 05:05:26;;;;;;;;;;;;;;;22.09;55.96;101455.09;2196360;39;114011;-53
2021/06/26 05:06:57;;;;;;;;;;;;;;;22.09;55.93;101459.88;2199106;39;115341;-53
2021/06/26 05:08:29;;;;;;;;;;;;;;;22.11;55.89;101454.78;2194176;39;113881;-53
2021/06/26 05:10:01;;;;;;;;;;;;;;;22.07;56.39;101463.03;2183252;39;114503;-53
2021/06/26 05:11:33;;;;;;;;;;;;;;;22.08;56.25;101456.22;2188231;39;113700;-54
2021/06/26 05:13:05;;;;;;;;;;;;;;;22.07;56.08;101453.75;2182256;39;113776;-53
2021/06/26 05:14:36;;;;;;;;;;;;;;;22.10;56.33;101458.75;2192334;39;114237;-54
2021/06/26 05:16:08;;;;;;;;;;;;;;;22.09;56.12;101451.44;2197028;39;114936;-53
2021/06/26 05:17:40;;;;;;;;;;;;;;;22.07;56.24;101454.59;2187320;39;115361;-54
2021/06/26 05:19:12;;;;;;;;;;;;;;;22.09;56.23;101465.50;2184914;39;114900;-54
2021/06/26 05:20:44;;;;;;;;;;;;;;;22.08;56.32;101467.47;2183815;39;115051;-53
2021/06/26 05:22:16;;;;;;;;;;;;;;;22.09;56.04;101465.50;2198311;39;114143;-54
2021/06/26 05:23:48;;;;;;;;;;;;;;;22.08;56.29;101466.66;2198385;39;115833;-53
2021/06/26 05:25:19;;;;;;;;;;;;;;;22.07;56.36;101463.03;2196193;39;114981;-55
2021/06/26 05:26:51;;;;;;;;;;;;;;;22.09;56.33;101468.31;2191281;39;115885;-54
2021/06/26 05:28:23;;;;;;;;;;;;;;;22.09;56.36;101471.97;2199243;39;115118;-53
2021/06/26 05:29:54;;;;;;;;;;;;;;;22.07;56.22;101481.88;2199548;39;114986;-53
2021/06/26 05:31:26;;;;;;;;;;;;;;;22.06;56.41;101481.03;2198406;39;114644;-53
2021/06/26 05:32:58;;;;;;;;;;;;;;;22.09;56.40;101476.78;2198602;39;114834;-54
2021/06/26 05:34:29;;;;;;;;;;;;;;;22.09;56.24;101482.41;2200556;39;115059;-53
2021/06/26 05:36:01;;;;;;;;;;;;;;;22.09;56.20;101483.22;2199456;39;114901;-53
2021/06/26 05:37:33;;;;;;;;;;;;;;;22.09;56.29;101483.22;2184273;39;115532;-53
2021/06/26 05:39:05;;;;;;;;;;;;;;;22.09;56.39;101491.69;2190532;39;116657;-53
2021/06/26 05:40:36;;;;;;;;;;;;;;;22.09;56.25;101490.84;2195250;39;115623;-53
2021/06/26 05:42:08;;;;;;;;;;;;;;;22.09;56.11;101488.88;2195261;39;115543;-53
2021/06/26 05:43:40;;;;;;;;;;;;;;;22.11;56.03;101497.00;2189782;39;116341;-54
2021/06/26 05:45:12;;;;;;;;;;;;;;;22.09;56.12;101499.28;2194659;39;115648;-53
2021/06/26 05:46:43;;;;;;;;;;;;;;;22.11;56.53;101503.47;2196968;39;115878;-53
2021/06/26 05:48:15;;;;;;;;;;;;;;;22.13;56.25;101498.38;2198823;39;115459;-54
2021/06/26 05:49:47;;;;;;;;;;;;;;;22.13;56.33;101498.38;2199986;39;115805;-53
2021/06/26 05:51:19;;;;;;;;;;;;;;;22.15;56.07;101509.31;2193887;39;115691;-54
2021/06/26 05:52:52;;;;;;;;;;;;;;;22.15;56.12;101503.69;2193292;39;115156;-53
2021/06/26 05:54:24;;;;;;;;;;;;;;;22.14;56.54;101504.84;2198125;39;115491;-54
2021/06/26 05:55:57;;;;;;;;;;;;;;;22.12;56.36;101510.75;2198638;39;116236;-53
2021/06/26 05:57:29;;;;;;;;;;;;;;;22.14;56.41;101507.66;2198498;39;115626;-53
2021/06/26 05:59:00;;;;;;;;;;;;;;;22.16;56.30;101500.59;2200553;39;116011;-54
2021/06/26 06:00:33;;;;;;;;;;;;;;;22.12;56.10;101495.88;2196969;39;113655;-53
2021/06/26 06:02:12;;;;;;;;;;;;;;;22.13;56.20;101501.19;2198503;39;113985;-53
2021/06/26 06:03:46;;;;;;;;;;;;;;;22.11;56.26;101505.47;2195400;39;114133;-53
2021/06/26 06:05:18;;;;;;;;;;;;;;;22.13;56.24;101498.38;2195830;39;114330;-54
2021/06/26 06:06:49;;;;;;;;;;;;;;;22.12;56.34;101501.50;2200005;39;113635;-53
2021/06/26 06:08:21;;;;;;;;;;;;;;;22.14;56.42;101500.03;2200668;39;114888;-54
2021/06/26 06:09:53;;;;;;;;;;;;;;;22.13;56.29;101508.78;2198571;39;113641;-53
2021/06/26 06:11:24;;;;;;;;;;;;;;;22.12;56.40;101505.13;2198811;39;113722;-53
2021/06/26 06:12:56;;;;;;;;;;;;;;;22.13;56.48;101503.16;2196295;39;113727;-53
2021/06/26 06:14:28;;;;;;;;;;;;;;;22.13;56.33;101509.63;2199759;39;113768;-53
2021/06/26 06:16:00;;;;;;;;;;;;;;;22.12;56.34;101510.75;2187200;39;113944;-53
2021/06/26 06:17:31;;;;;;;;;;;;;;;22.14;56.36;101513.28;2195716;39;113775;-53
2021/06/26 06:19:03;;;;;;;;;;;;;;;22.13;56.35;101517.22;2196097;39;114089;-53
2021/06/26 06:20:35;;;;;;;;;;;;;;;22.13;56.29;101522.84;2201479;39;116798;-53
2021/06/26 06:22:08;;;;;;;;;;;;;;;22.12;56.27;101513.56;2200334;39;114893;-53
2021/06/26 06:23:40;;;;;;;;;;;;;;;22.13;56.36;101512.44;2199894;39;115001;-53
2021/06/26 06:25:13;;;;;;;;;;;;;;;22.16;56.70;101513.81;2195759;39;114959;-53
2021/06/26 06:26:45;;;;;;;;;;;;;;;22.14;56.46;101513.28;2198127;39;114876;-53
2021/06/26 06:28:17;;;;;;;;;;;;;;;22.14;56.43;101521.72;2198285;39;114954;-53
2021/06/26 06:29:48;;;;;;;;;;;;;;;22.12;56.40;101521.22;2187936;39;115482;-53
2021/06/26 06:31:20;;;;;;;;;;;;;;;22.13;56.35;101520.88;2190889;39;115430;-53
2021/06/26 06:32:52;;;;;;;;;;;;;;;22.13;56.51;101520.88;2192960;39;115360;-54
2021/06/26 06:34:24;;;;;;;;;;;;;;;22.14;56.70;101516.94;2197859;39;115007;-53
2021/06/26 06:35:55;;;;;;;;;;;;;;;22.16;56.22;101519.44;2200043;39;114831;-53
2021/06/26 06:37:27;;;;;;;;;;;;;;;22.16;55.90;101522.25;2194659;39;115350;-53
2021/06/26 06:38:59;;;;;;;;;;;;;;;22.15;56.01;101521.44;2197264;39;115400;-53
2021/06/26 06:40:31;;;;;;;;;;;;;;;22.17;56.31;101521.09;2200448;39;114809;-53
2021/06/26 06:42:03;;;;;;;;;;;;;;;22.13;56.25;101523.69;2202382;39;115448;-53
2021/06/26 06:43:34;;;;;;;;;;;;;;;22.14;55.97;101522.56;2198247;39;115898;-54
2021/06/26 06:45:07;;;;;;;;;;;;;;;22.14;56.02;101525.38;2201138;39;115651;-53
2021/06/26 06:46:38;;;;;;;;;;;;;;;22.12;56.20;101516.38;2199764;39;115493;-53
2021/06/26 06:48:10;;;;;;;;;;;;;;;22.13;56.02;101520.03;2201861;39;116014;-53
2021/06/26 06:49:42;;;;;;;;;;;;;;;22.14;56.23;101521.72;2192689;39;115815;-53
2021/06/26 06:51:14;;;;;;;;;;;;;;;22.16;56.05;101516.63;2186052;39;116696;-53
2021/06/26 06:52:45;;;;;;;;;;;;;;;22.14;55.75;101511.31;2189633;39;115744;-54
2021/06/26 06:54:17;;;;;;;;;;;;;;;22.14;55.90;101516.09;2190860;39;114449;-53
2021/06/26 06:55:51;;;;;;;;;;;;;;;22.15;56.16;101515.78;2197269;39;116401;-53
2021/06/26 06:57:24;;;;;;;;;;;;;;;22.15;55.94;101517.78;2200010;39;115673;-53
2021/06/26 06:58:56;;;;;;;;;;;;;;;22.14;56.04;101514.13;2200135;39;115418;-54
2021/06/26 07:00:28;;;;;;;;;;;;;;;22.14;55.81;101518.91;2193054;39;115228;-53
2021/06/26 07:01:59;;;;;;;;;;;;;;;22.15;55.92;101512.97;2187371;39;115466;-53
2021/06/26 07:03:31;;;;;;;;;;;;;;;22.15;55.85;101515.78;2198879;39;116050;-53
2021/06/26 07:05:03;;;;;;;;;;;;;;;22.14;55.67;101510.47;2199742;39;113910;-53
2021/06/26 07:06:35;;;;;;;;;;;;;;;22.13;55.91;101514.41;2193431;39;114035;-53
2021/06/26 07:08:06;;;;;;;;;;;;;;;22.14;55.82;101516.09;2199997;39;114091;-54
2021/06/26 07:09:38;;;;;;;;;;;;;;;22.15;56.02;101514.97;2193533;39;114630;-53
2021/06/26 07:11:10;;;;;;;;;;;;;;;22.15;55.85;101517.78;2199488;39;114154;-53
2021/06/26 07:12:42;;;;;;;;;;;;;;;22.16;55.95;101523.09;2193759;39;113969;-53
2021/06/26 07:14:13;;;;;;;;;;;;;;;22.15;55.58;101521.44;2200459;39;114110;-53
2021/06/26 07:15:45;;;;;;;;;;;;;;;22.16;55.67;101516.63;2198887;39;113751;-53
2021/06/26 07:17:17;;;;;;;;;;;;;;;22.16;55.89;101522.25;2198802;39;113861;-53
2021/06/26 07:18:49;;;;;;;;;;;;;;;22.16;55.94;101525.91;2197751;39;113993;-53
2021/06/26 07:20:20;;;;;;;;;;;;;;;22.17;55.83;101527.56;2193209;39;114339;-54
2021/06/26 07:21:52;;;;;;;;;;;;;;;22.16;55.79;101528.72;2194773;39;113831;-53
2021/06/26 07:23:24;;;;;;;;;;;;;;;22.16;56.04;101523.09;2197976;39;114065;-54
2021/06/26 07:24:55;;;;;;;;;;;;;;;22.14;55.93;101536.63;2191166;39;114075;-53
2021/06/26 07:26:27;;;;;;;;;;;;;;;22.17;56.21;101538.00;2202612;39;113756;-53
2021/06/26 07:27:59;;;;;;;;;;;;;;;22.16;56.05;101530.72;2201692;39;114914;-53
2021/06/26 07:29:30;;;;;;;;;;;;;;;22.21;56.05;101535.41;2196707;39;114963;-53
2021/06/26 07:31:02;;;;;;;;;;;;;;;22.19;56.01;101538.53;2197354;39;115034;-56
2021/06/26 07:32:34;;;;;;;;;;;;;;;22.19;55.93;101541.34;2193257;39;114494;-53
2021/06/26 07:34:06;;;;;;;;;;;;;;;22.17;55.92;101532.34;2199673;39;115185;-53
2021/06/26 07:35:37;;;;;;;;;;;;;;;22.17;56.23;101529.53;2200087;39;114186;-53
2021/06/26 07:37:09;;;;;;;;;;;;;;;22.19;56.02;101532.91;2201260;39;114928;-53
2021/06/26 07:38:41;;;;;;;;;;;;;;;22.18;56.01;101532.06;2200479;39;114988;-53
2021/06/26 07:40:16;;;;;;;;;;;;;;;22.20;55.97;101534.59;2201778;39;114914;-53
2021/06/26 07:41:48;;;;;;;;;;;;;;;22.17;55.84;101527.56;2196292;39;114914;-53
2021/06/26 07:43:20;;;;;;;;;;;;;;;22.17;55.98;101530.38;2193815;39;114022;-53
2021/06/26 07:44:52;;;;;;;;;;;;;;;22.18;55.93;101534.88;2197791;39;115179;-53
2021/06/26 07:46:23;;;;;;;;;;;;;;;22.19;55.82;101530.09;2199728;39;114953;-58
2021/06/26 07:47:55;;;;;;;;;;;;;;;22.18;56.11;101528.41;2197174;39;114855;-53
2021/06/26 07:49:27;;;;;;;;;;;;;;;22.17;55.67;101527.56;2192169;39;115587;-53